メインページ
METAR-TAF:

METAR-TAF

空港 :

ハマダーン, イラン

緯度: 34-52-05N, 経度: 048-33-08E, 海抜: 1757m

現時点の気象観測

当レポートは40分前の10:00(UTC)に作成
東/北東の風 4kt
気温 12°C
湿度 40%
気圧 1018 hPa
視程10km以上
高度3500ftの雲はほとんどない, 塔状積雲.
高度4000ftの雲は散在している

METAR: OIHH 221000Z 06004KT 9999 FEW035TCU SCT040 12/M01 Q1018

時間: 14:10 (10:40 UTC)


TAF: 見つかりません

4,000以上の空港の気象観測と天気予報(METAR報とTAF報)

利用可能な観測所は地図上に黄色い丸と赤い丸で示す。

丸の上にカーソルを重ねると観測所名を参照できる。

次にクリックすると気象観測と天気予報を参照できる。

マップの切り替え:黒色「×」印の緑ボタンをクリックして拡大、「-」印の緑ボタンをクリックして縮小、緑色の三角印をクリックして隣りの地図に切り替え


METAR-TAF: